Time;durP1;ratioP1;P1;durP2;ratioP2;P2;SDS_P1;SDS_P2;PMS_P1;PMS_P2;Temp;Humidity;BMP_temperature;BMP_pressure;BME280_temperature;BME280_humidity;BME280_pressure;Samples;Min_cycle;Max_cycle;Signal;HPM_P1;HPM_P2
2023/12/01 00:00:22;;;;;;;24.03;17.30;;;;;;;3.24;100.00;98609.41;5014926;28;20250;-62
2023/12/01 00:02:47;;;;;;;27.80;19.13;;;;;;;3.17;100.00;98608.06;5028346;28;20257;-61
2023/12/01 00:05:12;;;;;;;28.00;19.43;;;;;;;3.32;100.00;98619.22;5013254;28;20194;-60
2023/12/01 00:07:38;;;;;;;24.93;18.37;;;;;;;3.28;100.00;98618.53;5031465;28;20208;-60
2023/12/01 00:10:04;;;;;;;24.83;17.23;;;;;;;3.14;100.00;98628.53;5022368;28;20186;-60
2023/12/01 00:12:29;;;;;;;23.67;17.20;;;;;;;3.10;100.00;98620.25;5016336;28;20225;-60
2023/12/01 00:14:55;;;;;;;24.37;16.73;;;;;;;3.20;100.00;98611.28;5029495;28;20182;-60
2023/12/01 00:17:20;;;;;;;22.97;16.03;;;;;;;2.97;100.00;98609.00;5031700;28;20178;-60
2023/12/01 00:19:46;;;;;;;24.23;16.67;;;;;;;2.63;100.00;98580.94;5029566;28;20194;-59
2023/12/01 00:22:12;;;;;;;23.77;16.90;;;;;;;2.49;100.00;98566.31;5013406;28;20223;-60
2023/12/01 00:24:37;;;;;;;19.80;14.17;;;;;;;2.17;100.00;98611.75;5016802;28;20275;-60
2023/12/01 00:27:03;;;;;;;18.47;13.53;;;;;;;2.18;100.00;98607.50;5025694;28;20187;-60
2023/12/01 00:29:28;;;;;;;16.77;12.90;;;;;;;2.08;100.00;98607.91;5024949;28;20240;-60
2023/12/01 00:31:53;;;;;;;15.93;12.00;;;;;;;1.96;100.00;98607.59;4978806;28;20268;-60
2023/12/01 00:34:19;;;;;;;16.77;12.77;;;;;;;2.15;100.00;98593.22;5007558;28;20197;-61
2023/12/01 00:36:44;;;;;;;16.43;12.37;;;;;;;2.26;100.00;98598.66;5013669;28;20197;-61
2023/12/01 00:39:10;;;;;;;19.33;13.67;;;;;;;2.17;100.00;98604.16;5013229;28;20545;-61
2023/12/01 00:41:35;;;;;;;19.40;12.67;;;;;;;2.10;100.00;98608.66;5017592;28;20244;-60
2023/12/01 00:44:01;;;;;;;17.00;11.97;;;;;;;2.21;100.00;98617.53;5024038;28;20193;-62
2023/12/01 00:46:26;;;;;;;17.10;13.20;;;;;;;2.33;100.00;98616.97;5033411;28;20178;-59
2023/12/01 00:48:51;;;;;;;17.50;12.30;;;;;;;2.30;100.00;98624.72;5034334;28;20182;-60
2023/12/01 00:51:20;;;;;;;17.70;12.60;;;;;;;2.15;100.00;98622.88;5033932;28;20597;-59
2023/12/01 00:53:48;;;;;;;16.97;12.63;;;;;;;2.03;100.00;98630.09;5038697;28;20333;-59
2023/12/01 00:56:14;;;;;;;16.77;12.53;;;;;;;2.25;100.00;98617.28;5034022;28;20174;-60
2023/12/01 00:58:40;;;;;;;15.63;11.43;;;;;;;2.08;100.00;98617.22;5026515;28;20196;-59
2023/12/01 01:01:06;;;;;;;18.77;13.10;;;;;;;2.08;100.00;98617.22;5021103;28;20225;-59
2023/12/01 01:03:35;;;;;;;15.67;11.90;;;;;;;1.95;100.00;98616.94;5024632;28;20220;-60
2023/12/01 01:06:01;;;;;;;16.97;12.57;;;;;;;1.94;100.00;98605.94;5032159;28;20189;-60
2023/12/01 01:08:28;;;;;;;18.17;12.73;;;;;;;1.84;100.00;98612.31;5032794;28;20178;-59
2023/12/01 01:10:54;;;;;;;17.20;12.13;;;;;;;1.83;100.00;98605.59;5022487;28;20230;-60
2023/12/01 01:13:19;;;;;;;17.17;13.13;;;;;;;1.63;100.00;98625.91;5010580;28;20265;-60
2023/12/01 01:15:45;;;;;;;19.03;13.77;;;;;;;1.59;100.00;98620.94;5032977;28;20276;-59
2023/12/01 01:18:10;;;;;;;17.60;12.63;;;;;;;1.66;100.00;98615.63;5033763;28;20605;-60
2023/12/01 01:20:35;;;;;;;17.13;13.40;;;;;;;1.48;100.00;98607.91;5027273;28;20269;-60
2023/12/01 01:23:00;;;;;;;20.07;13.70;;;;;;;1.35;100.00;98622.75;5044224;28;20177;-59
2023/12/01 01:25:26;;;;;;;15.93;12.40;;;;;;;1.37;100.00;98641.28;5032181;28;20661;-59
2023/12/01 01:27:51;;;;;;;17.33;13.73;;;;;;;1.33;100.00;98639.75;5022096;28;20178;-59
2023/12/01 01:30:16;;;;;;;16.33;13.20;;;;;;;1.45;100.00;98651.94;5021827;28;20185;-59
2023/12/01 01:32:42;;;;;;;19.33;13.33;;;;;;;1.45;100.00;98648.56;5017844;28;20493;-59
2023/12/01 01:35:07;;;;;;;15.87;12.53;;;;;;;1.46;100.00;98637.53;5031863;28;20588;-59
2023/12/01 01:37:33;;;;;;;16.70;13.80;;;;;;;1.38;100.00;98637.84;5019086;28;20176;-60
2023/12/01 01:39:59;;;;;;;14.73;12.13;;;;;;;1.43;100.00;98642.75;5020064;28;20299;-59
2023/12/01 01:42:24;;;;;;;14.03;11.73;;;;;;;1.34;100.00;98633.81;5022253;28;20228;-60
2023/12/01 01:44:50;;;;;;;13.37;10.70;;;;;;;1.25;100.00;98631.63;5031694;28;20192;-59
2023/12/01 01:47:15;;;;;;;13.10;11.27;;;;;;;1.25;100.00;98627.41;5033057;28;20258;-59
2023/12/01 01:49:41;;;;;;;14.53;12.30;;;;;;;1.25;100.00;98629.94;5033344;28;20185;-59
2023/12/01 01:52:07;;;;;;;13.70;11.83;;;;;;;1.25;100.00;98642.59;5021869;28;20216;-59
2023/12/01 01:54:32;;;;;;;14.70;11.83;;;;;;;1.27;100.00;98648.41;5032281;28;20189;-59
2023/12/01 01:56:58;;;;;;;15.00;12.40;;;;;;;1.23;100.00;98651.97;5032833;28;20239;-59
2023/12/01 01:59:23;;;;;;;14.93;12.70;;;;;;;1.37;100.00;98648.88;5032666;28;20633;-59
2023/12/01 02:01:50;;;;;;;16.13;12.07;;;;;;;1.46;100.00;98642.59;5036309;28;20237;-59
2023/12/01 02:04:16;;;;;;;14.30;11.63;;;;;;;1.43;100.00;98650.34;5031085;28;20195;-59
2023/12/01 02:06:45;;;;;;;12.60;10.77;;;;;;;1.31;100.00;98633.91;5031318;28;20213;-60
2023/12/01 02:09:11;;;;;;;14.07;11.57;;;;;;;1.16;100.00;98642.94;5033319;28;20186;-59
2023/12/01 02:11:37;;;;;;;14.10;11.40;;;;;;;1.43;100.00;98652.88;5011216;28;20310;-60
2023/12/01 02:14:02;;;;;;;13.67;11.70;;;;;;;1.46;100.00;98662.88;5020530;28;20170;-60
2023/12/01 02:16:31;;;;;;;13.57;12.10;;;;;;;1.33;100.00;98660.03;5012571;28;20240;-60
2023/12/01 02:18:57;;;;;;;14.40;11.07;;;;;;;1.43;100.00;98658.75;5033323;28;20174;-59
2023/12/01 02:21:32;;;;;;;13.83;10.60;;;;;;;1.41;100.00;98652.91;5024027;28;20370;-59
2023/12/01 02:23:59;;;;;;;12.03;10.57;;;;;;;1.38;100.00;98668.25;5030963;28;20235;-60
2023/12/01 02:26:24;;;;;;;11.50;9.23;;;;;;;1.33;100.00;98671.84;5032539;28;20221;-59
2023/12/01 02:28:49;;;;;;;11.77;9.80;;;;;;;1.22;100.00;98678.16;5024111;28;20713;-60
2023/12/01 02:31:15;;;;;;;13.20;10.00;;;;;;;1.42;100.00;98674.03;5027209;28;20227;-60
2023/12/01 02:33:40;;;;;;;11.07;9.10;;;;;;;1.44;100.00;98673.09;5029816;28;20261;-59
2023/12/01 02:36:11;;;;;;;11.00;9.03;;;;;;;1.45;100.00;98667.13;5027084;28;20183;-59
2023/12/01 02:38:36;;;;;;;9.97;8.53;;;;;;;1.55;100.00;98675.19;5024197;28;20181;-59
2023/12/01 02:41:02;;;;;;;9.70;8.23;;;;;;;1.44;100.00;98680.69;5006996;28;20760;-59
2023/12/01 02:43:29;;;;;;;9.30;8.17;;;;;;;1.42;100.00;98674.03;5030937;28;20186;-59
2023/12/01 02:45:55;;;;;;;10.33;7.67;;;;;;;1.36;100.00;98666.69;5012280;28;20189;-59
2023/12/01 02:48:21;;;;;;;11.00;9.13;;;;;;;1.40;100.00;98673.25;5012603;28;20220;-59
2023/12/01 02:50:47;;;;;;;10.40;8.57;;;;;;;1.53;100.00;98686.28;5018389;28;20266;-59
2023/12/01 02:53:12;;;;;;;10.03;8.47;;;;;;;1.53;100.00;98687.09;5041251;28;20193;-59
2023/12/01 02:55:37;;;;;;;9.00;8.10;;;;;;;1.46;100.00;98688.22;5017695;28;20272;-59
2023/12/01 02:58:03;;;;;;;8.70;7.40;;;;;;;1.43;100.00;98685.81;5021449;28;20653;-59
2023/12/01 03:00:29;;;;;;;8.83;7.93;;;;;;;1.46;100.00;98690.75;5010405;28;20324;-59
2023/12/01 03:02:54;;;;;;;8.33;7.53;;;;;;;1.46;100.00;98685.69;5014126;28;20554;-60
2023/12/01 03:05:20;;;;;;;7.83;7.03;;;;;;;1.44;100.00;98684.94;5017071;28;20283;-60
2023/12/01 03:07:46;;;;;;;9.30;7.90;;;;;;;1.35;100.00;98690.34;5021428;28;20214;-60
2023/12/01 03:10:12;;;;;;;7.80;7.10;;;;;;;1.27;100.00;98691.47;5020947;28;20182;-59
2023/12/01 03:12:38;;;;;;;8.93;8.03;;;;;;;1.47;100.00;98684.81;5030561;28;20193;-59
2023/12/01 03:15:08;;;;;;;9.90;8.90;;;;;;;1.90;100.00;98695.75;5029831;28;20285;-59
2023/12/01 03:17:33;;;;;;;8.80;7.90;;;;;;;2.18;100.00;98681.06;5031705;28;20668;-59
2023/12/01 03:19:59;;;;;;;10.00;9.00;;;;;;;2.05;100.00;98680.78;5031139;28;20209;-59
2023/12/01 03:22:24;;;;;;;9.60;8.30;;;;;;;1.78;100.00;98665.81;5020276;28;20233;-60
2023/12/01 03:24:53;;;;;;;8.80;7.90;;;;;;;1.38;100.00;98675.88;5031007;28;20205;-59
2023/12/01 03:27:21;;;;;;;8.70;7.83;;;;;;;1.22;100.00;98662.97;5030251;28;20222;-59
2023/12/01 03:29:46;;;;;;;8.97;8.07;;;;;;;1.25;100.00;98669.63;5029817;28;20193;-59
2023/12/01 03:32:11;;;;;;;10.20;8.80;;;;;;;1.19;100.00;98663.09;5020223;28;20667;-58
2023/12/01 03:34:37;;;;;;;10.07;7.80;;;;;;;1.05;100.00;98657.75;5031105;28;20182;-58
2023/12/01 03:37:03;;;;;;;8.80;7.83;;;;;;;1.01;100.00;98664.63;5030367;28;20187;-58
2023/12/01 03:39:28;;;;;;;9.23;8.00;;;;;;;1.09;100.00;98666.88;5031449;28;20551;-58
2023/12/01 03:41:54;;;;;;;8.23;7.43;;;;;;;1.01;100.00;98662.09;5008031;28;20240;-58
2023/12/01 03:44:20;;;;;;;8.43;7.60;;;;;;;1.01;100.00;98659.56;5030569;28;20199;-58
2023/12/01 03:46:46;;;;;;;8.80;7.93;;;;;;;0.86;100.00;98671.09;5031381;28;20215;-58
2023/12/01 03:49:12;;;;;;;8.70;7.80;;;;;;;0.94;100.00;98676.72;5031251;28;20188;-57
2023/12/01 03:51:37;;;;;;;8.50;7.70;;;;;;;1.17;100.00;98692.72;5020540;28;20587;-58
2023/12/01 03:54:03;;;;;;;8.70;7.80;;;;;;;1.23;100.00;98689.97;5033731;28;20219;-58
2023/12/01 03:56:28;;;;;;;8.00;7.20;;;;;;;0.96;100.00;98684.25;5035563;28;20177;-58
2023/12/01 03:58:55;;;;;;;9.40;7.23;;;;;;;0.90;100.00;98685.28;5033219;28;20639;-58
2023/12/01 04:01:21;;;;;;;8.67;7.50;;;;;;;0.85;100.00;98681.28;5016047;28;20228;-58
2023/12/01 04:03:46;;;;;;;7.57;6.87;;;;;;;0.87;100.00;98680.34;5027861;28;20168;-58
2023/12/01 04:06:12;;;;;;;8.37;7.47;;;;;;;0.83;100.00;98678.00;5035168;28;20188;-58
2023/12/01 04:08:38;;;;;;;9.10;8.20;;;;;;;0.80;100.00;98678.94;5035004;28;20205;-58
2023/12/01 04:11:04;;;;;;;7.93;7.13;;;;;;;0.77;100.00;98687.47;5026625;28;20320;-57
2023/12/01 04:13:29;;;;;;;7.87;7.00;;;;;;;0.85;100.00;98686.34;5033100;28;20191;-59
2023/12/01 04:15:55;;;;;;;9.43;8.40;;;;;;;0.84;100.00;98685.50;5034698;28;20183;-58
2023/12/01 04:18:20;;;;;;;9.53;8.53;;;;;;;1.06;100.00;98690.59;5034438;28;20187;-58
2023/12/01 04:20:45;;;;;;;10.50;8.97;;;;;;;1.11;100.00;98686.19;5024431;28;20672;-58
2023/12/01 04:23:11;;;;;;;8.63;7.77;;;;;;;1.16;100.00;98680.94;5022562;28;20307;-58
2023/12/01 04:25:40;;;;;;;8.83;7.97;;;;;;;1.30;100.00;98675.31;5033691;28;20217;-59
2023/12/01 04:28:06;;;;;;;9.07;8.17;;;;;;;1.27;100.00;98673.75;5033156;28;20177;-59
2023/12/01 04:30:32;;;;;;;9.30;8.40;;;;;;;1.33;100.00;98682.81;5005505;28;20270;-58
2023/12/01 04:32:59;;;;;;;9.57;8.43;;;;;;;1.14;100.00;98667.50;5019667;28;20187;-58
2023/12/01 04:35:27;;;;;;;12.47;9.63;;;;;;;0.92;100.00;98663.28;5033725;28;20234;-59
2023/12/01 04:37:52;;;;;;;10.50;9.10;;;;;;;0.77;100.00;98673.97;5033167;28;20185;-59
2023/12/01 04:40:18;;;;;;;11.00;9.43;;;;;;;0.71;100.00;98684.31;5016176;28;20231;-58
2023/12/01 04:42:44;;;;;;;11.30;8.70;;;;;;;0.80;100.00;98679.75;5030325;28;20184;-60
2023/12/01 04:45:11;;;;;;;10.67;8.93;;;;;;;0.83;100.00;98683.88;5033079;28;20238;-59
2023/12/01 04:47:46;;;;;;;9.63;8.63;;;;;;;1.24;100.00;98686.53;5020628;28;20187;-59
2023/12/01 04:50:14;;;;;;;9.90;8.80;;;;;;;1.31;100.00;98687.13;5024136;28;20212;-59
2023/12/01 04:52:47;;;;;;;9.57;8.10;;;;;;;1.22;100.00;98684.97;5048143;28;20214;-59
2023/12/01 04:55:15;;;;;;;8.90;8.00;;;;;;;1.27;100.00;98694.00;5032917;28;20189;-59
2023/12/01 04:57:42;;;;;;;10.63;7.40;;;;;;;1.62;100.00;98706.19;5032718;28;20658;-59
2023/12/01 05:00:21;;;;;;;7.57;6.87;;;;;;;2.03;100.00;98696.03;5010897;28;20228;-59
2023/12/01 05:02:50;;;;;;;8.20;7.40;;;;;;;1.83;100.00;98696.06;5022019;28;20177;-59
2023/12/01 05:05:20;;;;;;;6.60;6.00;;;;;;;1.80;100.00;98698.72;5029830;28;20192;-59
2023/12/01 05:07:49;;;;;;;6.97;6.27;;;;;;;1.75;100.00;98697.19;5023417;28;20195;-59
2023/12/01 05:10:15;;;;;;;6.63;6.03;;;;;;;1.69;100.00;98707.59;5022149;28;20185;-60
2023/12/01 05:12:45;;;;;;;7.93;7.13;;;;;;;1.64;100.00;98712.03;5013169;28;20256;-59
2023/12/01 05:15:17;;;;;;;7.07;6.37;;;;;;;1.61;100.00;98718.03;5025769;28;20182;-59
2023/12/01 05:17:43;;;;;;;6.70;6.10;;;;;;;1.50;100.00;98720.19;5014625;28;20182;-59
2023/12/01 05:20:18;;;;;;;7.07;6.37;;;;;;;1.62;100.00;98721.38;5016841;28;20196;-59
2023/12/01 05:22:45;;;;;;;7.83;7.00;;;;;;;1.72;100.00;98722.66;5032361;28;20184;-59
2023/12/01 05:25:13;;;;;;;7.10;6.47;;;;;;;1.67;100.00;98724.56;5032291;28;20632;-59
2023/12/01 05:27:47;;;;;;;7.33;6.63;;;;;;;1.65;100.00;98723.81;5032427;28;20188;-59
2023/12/01 05:30:16;;;;;;;6.93;6.33;;;;;;;1.56;100.00;98729.22;5022037;28;20213;-58
2023/12/01 05:32:44;;;;;;;7.33;6.63;;;;;;;1.62;100.00;98721.38;5032659;28;20215;-59
2023/12/01 05:35:10;;;;;;;7.13;6.43;;;;;;;1.48;100.00;98724.47;5018609;28;20178;-59
2023/12/01 05:37:56;;;;;;;7.90;7.10;;;;;;;1.31;100.00;98730.19;5022155;28;20185;-59
2023/12/01 05:40:30;;;;;;;6.93;6.23;;;;;;;1.19;100.00;98723.91;5022814;28;20248;-58
2023/12/01 05:42:57;;;;;;;9.47;6.80;;;;;;;1.24;100.00;98726.22;5005950;28;20292;-59
2023/12/01 05:45:24;;;;;;;7.63;6.87;;;;;;;1.25;100.00;98728.72;5024660;28;20585;-59
2023/12/01 05:47:52;;;;;;;6.80;6.10;;;;;;;1.23;100.00;98727.16;5026919;28;20199;-61
2023/12/01 05:50:24;;;;;;;7.47;6.73;;;;;;;1.12;100.00;98727.53;5016026;28;20189;-58
2023/12/01 05:52:51;;;;;;;10.07;6.57;;;;;;;1.09;100.00;98731.03;5027635;28;20469;-59
2023/12/01 05:55:21;;;;;;;8.97;7.07;;;;;;;1.31;100.00;98740.31;5023296;28;20641;-59
2023/12/01 05:57:48;;;;;;;7.27;6.57;;;;;;;1.33;100.00;98727.59;5026171;28;20385;-59
2023/12/01 06:00:22;;;;;;;6.77;6.17;;;;;;;1.27;100.00;98741.34;5013397;28;20250;-58
2023/12/01 06:02:49;;;;;;;6.67;5.97;;;;;;;1.42;100.00;98747.53;5027600;28;20696;-59
2023/12/01 06:05:15;;;;;;;5.67;5.00;;;;;;;1.31;100.00;98753.00;5025221;28;20208;-59
2023/12/01 06:07:44;;;;;;;5.33;4.80;;;;;;;1.16;100.00;98759.47;5031628;28;20184;-59
2023/12/01 06:10:12;;;;;;;6.27;5.67;;;;;;;1.36;100.00;98760.44;5020036;28;20193;-59
2023/12/01 06:12:39;;;;;;;6.73;5.57;;;;;;;1.44;100.00;98766.84;5016576;28;20699;-59
2023/12/01 06:15:10;;;;;;;7.07;5.17;;;;;;;1.80;100.00;98765.47;5031151;28;20186;-60
2023/12/01 06:17:37;;;;;;;5.97;5.37;;;;;;;1.56;100.00;98775.69;5033429;28;20181;-59
2023/12/01 06:20:04;;;;;;;5.77;5.23;;;;;;;1.77;100.00;98784.16;5014765;28;20217;-60
2023/12/01 06:22:29;;;;;;;5.30;4.80;;;;;;;1.90;100.00;98787.03;5047922;28;20205;-58
2023/12/01 06:24:54;;;;;;;5.33;4.83;;;;;;;2.06;100.00;98784.72;5032674;28;20257;-59
2023/12/01 06:27:20;;;;;;;5.67;5.07;;;;;;;1.58;100.00;98776.44;5021354;28;20269;-59
2023/12/01 06:29:45;;;;;;;6.80;6.20;;;;;;;1.66;100.00;98776.13;5029655;28;20327;-59
2023/12/01 06:32:11;;;;;;;5.93;5.33;;;;;;;1.60;100.00;98787.34;5011336;28;20780;-59
2023/12/01 06:34:36;;;;;;;6.43;5.83;;;;;;;1.32;100.00;98776.63;5029453;28;20181;-59
2023/12/01 06:37:01;;;;;;;5.60;5.07;;;;;;;1.09;100.00;98771.53;5032722;28;20174;-59
2023/12/01 06:39:29;;;;;;;6.27;5.63;;;;;;;1.18;100.00;98777.13;5016585;28;20531;-59
2023/12/01 06:41:54;;;;;;;7.07;6.30;;;;;;;1.69;100.00;98775.22;5026730;28;20243;-59
2023/12/01 06:44:20;;;;;;;7.80;6.17;;;;;;;1.63;100.00;98786.41;5017749;28;20587;-59
2023/12/01 06:46:46;;;;;;;6.50;5.90;;;;;;;1.28;100.00;98791.94;5017868;28;20183;-60
2023/12/01 06:49:11;;;;;;;6.90;4.80;;;;;;;0.95;100.00;98802.41;5030744;28;20268;-58
2023/12/01 06:51:36;;;;;;;6.10;5.50;;;;;;;1.08;100.00;98801.97;5031990;28;20228;-59
2023/12/01 06:54:02;;;;;;;6.17;5.57;;;;;;;1.24;100.00;98805.59;5018950;28;20678;-60
2023/12/01 06:56:27;;;;;;;6.07;5.47;;;;;;;1.10;100.00;98810.34;5031866;28;20226;-59
2023/12/01 06:58:52;;;;;;;6.03;5.43;;;;;;;0.96;100.00;98804.06;5031785;28;20228;-59
2023/12/01 07:01:18;;;;;;;6.67;5.40;;;;;;;0.81;100.00;98802.09;5031621;28;20227;-59
2023/12/01 07:03:47;;;;;;;5.63;5.13;;;;;;;0.73;100.00;98799.84;5034396;28;20179;-59
2023/12/01 07:06:14;;;;;;;5.50;4.83;;;;;;;0.92;100.00;98804.25;5021278;28;20278;-60
2023/12/01 07:08:40;;;;;;;7.33;5.30;;;;;;;0.87;100.00;98801.03;5030090;28;20186;-60
2023/12/01 07:11:06;;;;;;;7.00;5.67;;;;;;;0.86;100.00;98796.88;5023422;28;20241;-60
2023/12/01 07:13:31;;;;;;;6.90;6.20;;;;;;;0.92;100.00;98804.25;5017959;28;20205;-60
2023/12/01 07:15:57;;;;;;;6.57;5.97;;;;;;;0.91;100.00;98818.59;5031569;28;20210;-60
2023/12/01 07:18:23;;;;;;;6.13;5.53;;;;;;;0.79;100.00;98822.41;5030244;28;20189;-59
2023/12/01 07:20:49;;;;;;;5.93;5.13;;;;;;;0.84;100.00;98831.53;5023151;28;20239;-60
2023/12/01 07:23:17;;;;;;;5.57;5.03;;;;;;;0.73;100.00;98817.56;5029796;28;20653;-61
2023/12/01 07:25:47;;;;;;;6.03;5.43;;;;;;;0.70;100.00;98824.44;5030317;28;20190;-60
2023/12/01 07:28:13;;;;;;;6.13;5.53;;;;;;;0.96;100.00;98803.25;5026947;28;20188;-59
2023/12/01 07:30:40;;;;;;;6.23;5.20;;;;;;;0.75;100.00;98804.84;5026219;28;20225;-60
2023/12/01 07:33:06;;;;;;;7.37;5.00;;;;;;;0.57;100.00;98813.88;5040781;28;20197;-60
2023/12/01 07:35:31;;;;;;;5.83;5.33;;;;;;;0.58;100.00;98820.59;5019493;28;20193;-60
2023/12/01 07:37:56;;;;;;;5.70;5.20;;;;;;;0.58;100.00;98823.13;5030190;28;20186;-60
2023/12/01 07:40:23;;;;;;;7.37;6.63;;;;;;;0.70;100.00;98826.97;5023739;28;20235;-60
2023/12/01 07:42:50;;;;;;;6.73;5.90;;;;;;;0.62;100.00;98825.50;5028980;28;20182;-61
2023/12/01 07:45:17;;;;;;;5.87;5.27;;;;;;;0.58;100.00;98820.59;5030116;28;20278;-60
2023/12/01 07:47:54;;;;;;;9.97;5.73;;;;;;;0.61;100.00;98812.91;5025767;28;20262;-60
2023/12/01 07:50:21;;;;;;;7.30;5.17;;;;;;;0.55;100.00;98819.00;5012726;28;20232;-61
2023/12/01 07:52:48;;;;;;;5.73;5.13;;;;;;;0.58;100.00;98816.38;5027621;28;20274;-60
2023/12/01 07:55:13;;;;;;;7.33;6.40;;;;;;;0.67;100.00;98822.00;5019948;28;20179;-60
2023/12/01 07:57:39;;;;;;;6.50;5.63;;;;;;;0.51;100.00;98820.00;5029787;28;20174;-59
2023/12/01 08:00:14;;;;;;;6.20;5.57;;;;;;;0.53;100.00;98830.06;5019286;28;20666;-61
2023/12/01 08:02:40;;;;;;;6.10;5.50;;;;;;;0.58;100.00;98820.59;5029126;28;20269;-59
2023/12/01 08:05:13;;;;;;;8.27;6.20;;;;;;;0.60;100.00;98832.31;5028982;28;20176;-60
2023/12/01 08:07:39;;;;;;;5.63;4.40;;;;;;;0.60;100.00;98837.38;5031299;28;20203;-59
2023/12/01 08:10:05;;;;;;;5.93;5.23;;;;;;;0.65;100.00;98842.28;5019127;28;20180;-59
2023/12/01 08:12:31;;;;;;;7.93;5.37;;;;;;;0.58;100.00;98846.75;5028939;28;20204;-59
2023/12/01 08:14:56;;;;;;;5.60;5.10;;;;;;;0.77;100.00;98835.97;5020419;28;20549;-59
2023/12/01 08:17:21;;;;;;;5.43;4.80;;;;;;;0.66;100.00;98840.56;5029961;28;20187;-59
2023/12/01 08:19:46;;;;;;;4.83;4.33;;;;;;;0.71;100.00;98846.31;5030787;28;20182;-59
2023/12/01 08:22:12;;;;;;;8.90;5.33;;;;;;;0.70;100.00;98853.09;5003790;28;20377;-59
2023/12/01 08:24:38;;;;;;;5.37;4.70;;;;;;;0.61;100.00;98858.47;5029848;28;20197;-59
2023/12/01 08:27:04;;;;;;;5.13;4.63;;;;;;;0.73;100.00;98852.16;5029884;28;20497;-60
2023/12/01 08:29:29;;;;;;;5.83;5.07;;;;;;;0.84;100.00;98846.72;5028640;28;20176;-59
2023/12/01 08:31:54;;;;;;;5.27;4.77;;;;;;;0.88;100.00;98856.72;4998484;28;20238;-59
2023/12/01 08:34:20;;;;;;;6.03;5.13;;;;;;;0.79;100.00;98857.84;5022594;28;20188;-59
2023/12/01 08:36:45;;;;;;;5.57;4.97;;;;;;;0.96;100.00;98852.19;5030923;28;20180;-60
2023/12/01 08:39:12;;;;;;;5.63;5.03;;;;;;;0.74;100.00;98853.81;5032233;28;20178;-59
2023/12/01 08:41:37;;;;;;;6.33;5.30;;;;;;;0.93;100.00;98847.22;5029142;28;20242;-59
2023/12/01 08:44:03;;;;;;;5.17;4.67;;;;;;;0.89;100.00;98842.31;5035351;28;20184;-59
2023/12/01 08:46:28;;;;;;;5.90;4.93;;;;;;;0.88;100.00;98838.97;5034091;28;20544;-59
2023/12/01 08:48:54;;;;;;;5.27;4.77;;;;;;;0.84;100.00;98846.72;5032016;28;20334;-59
2023/12/01 08:51:19;;;;;;;5.70;4.87;;;;;;;0.94;100.00;98843.00;5022964;28;20233;-59
2023/12/01 08:53:44;;;;;;;7.17;5.93;;;;;;;1.06;100.00;98845.09;5039012;28;20193;-61
2023/12/01 08:56:10;;;;;;;6.77;5.37;;;;;;;1.01;100.00;98852.03;5034034;28;20217;-59
2023/12/01 08:58:37;;;;;;;6.57;5.97;;;;;;;0.94;100.00;98858.19;5034016;28;20180;-59
2023/12/01 09:01:03;;;;;;;7.83;6.70;;;;;;;1.11;100.00;98855.88;5023087;28;20313;-59
2023/12/01 09:03:28;;;;;;;7.47;5.93;;;;;;;1.10;100.00;98861.00;5032751;28;20649;-59
2023/12/01 09:05:53;;;;;;;5.67;5.17;;;;;;;1.01;100.00;98862.16;5032415;28;20245;-60
2023/12/01 09:08:18;;;;;;;5.73;4.50;;;;;;;0.79;100.00;98878.09;5033302;28;20183;-59
2023/12/01 09:10:44;;;;;;;8.90;6.27;;;;;;;1.21;100.00;98881.69;5017402;28;21060;-59
2023/12/01 09:13:09;;;;;;;7.20;5.33;;;;;;;1.33;100.00;98874.53;5013992;28;20286;-60
2023/12/01 09:15:35;;;;;;;5.60;4.70;;;;;;;1.12;100.00;98882.03;5032917;28;20627;-59
2023/12/01 09:18:00;;;;;;;9.50;6.50;;;;;;;1.11;100.00;98878.66;5019607;28;20184;-61
2023/12/01 09:20:25;;;;;;;6.23;5.63;;;;;;;1.07;100.00;98873.78;5025114;28;20228;-59
2023/12/01 09:22:51;;;;;;;6.90;6.20;;;;;;;0.87;100.00;98869.41;5045719;28;20223;-60
2023/12/01 09:25:16;;;;;;;7.80;7.00;;;;;;;1.10;100.00;98871.13;5033626;28;20205;-59
2023/12/01 09:27:41;;;;;;;8.17;6.43;;;;;;;1.21;100.00;98868.22;5033306;28;20195;-60
2023/12/01 09:30:10;;;;;;;8.20;6.67;;;;;;;1.27;100.00;98861.22;5022487;28;20234;-59
2023/12/01 09:32:36;;;;;;;6.83;6.13;;;;;;;1.54;100.00;98878.00;5026185;28;20574;-63
2023/12/01 09:35:01;;;;;;;7.23;6.50;;;;;;;1.26;100.00;98863.81;5033101;28;20264;-60
2023/12/01 09:37:26;;;;;;;6.63;5.73;;;;;;;1.23;100.00;98859.69;5033478;28;20184;-61
2023/12/01 09:39:51;;;;;;;8.93;6.33;;;;;;;1.27;100.00;98865.47;5033159;28;20181;-61
2023/12/01 09:42:19;;;;;;;7.53;6.73;;;;;;;1.33;100.00;98864.41;5021724;28;20757;-60
2023/12/01 09:44:45;;;;;;;7.47;6.50;;;;;;;1.43;100.00;98866.56;5032881;28;20714;-60
2023/12/01 09:47:17;;;;;;;7.80;7.00;;;;;;;1.66;100.00;98869.13;5032873;28;20204;-61
2023/12/01 09:49:46;;;;;;;7.27;6.57;;;;;;;1.90;100.00;98874.97;5032803;28;20187;-60
2023/12/01 09:52:11;;;;;;;8.50;7.60;;;;;;;1.61;100.00;98882.81;5013523;28;20687;-60
2023/12/01 09:54:36;;;;;;;8.13;6.97;;;;;;;1.32;100.00;98883.84;5019893;28;20185;-60
2023/12/01 09:57:06;;;;;;;9.70;7.37;;;;;;;1.38;100.00;98878.56;5025768;28;20186;-60
2023/12/01 09:59:35;;;;;;;8.50;7.70;;;;;;;1.52;100.00;98880.59;5024507;28;20226;-60
2023/12/01 10:02:01;;;;;;;9.80;7.43;;;;;;;1.68;100.00;98880.03;5024052;28;20239;-61
2023/12/01 10:04:26;;;;;;;8.33;7.40;;;;;;;1.99;100.00;98887.28;5032689;28;20667;-60
2023/12/01 10:06:54;;;;;;;9.00;7.90;;;;;;;2.26;100.00;98895.53;5033009;28;20315;-60
2023/12/01 10:09:27;;;;;;;7.70;6.90;;;;;;;1.77;100.00;98898.28;5032966;28;20185;-60
2023/12/01 10:12:12;;;;;;;8.57;7.67;;;;;;;1.60;100.00;98898.03;5008914;28;20252;-61
2023/12/01 10:14:38;;;;;;;8.87;7.77;;;;;;;1.52;100.00;98894.97;5032144;28;20477;-60
2023/12/01 10:17:07;;;;;;;14.07;7.80;;;;;;;1.86;100.00;98891.19;5031303;28;20185;-60
2023/12/01 10:19:34;;;;;;;7.77;6.80;;;;;;;1.88;100.00;98894.50;5025644;28;20671;-60
2023/12/01 10:22:00;;;;;;;8.83;7.30;;;;;;;1.44;100.00;98885.13;5022613;28;20227;-60
2023/12/01 10:24:25;;;;;;;9.93;6.83;;;;;;;1.64;100.00;98886.94;5032566;28;20551;-61
2023/12/01 10:26:53;;;;;;;10.40;8.00;;;;;;;1.83;100.00;98881.97;5032319;28;20551;-61
2023/12/01 10:29:47;;;;;;;9.13;7.30;;;;;;;1.61;100.00;98870.13;5030081;28;20182;-60
2023/12/01 10:32:16;;;;;;;7.73;6.60;;;;;;;1.64;100.00;98868.34;5034254;28;20243;-60
2023/12/01 10:34:49;;;;;;;8.43;6.83;;;;;;;1.36;100.00;98872.72;5028736;28;20182;-60
2023/12/01 10:37:15;;;;;;;9.40;8.00;;;;;;;1.28;100.00;98865.41;5030782;28;20323;-60
2023/12/01 10:39:42;;;;;;;7.90;6.80;;;;;;;1.12;100.00;98862.59;5030993;28;20280;-60
2023/12/01 10:42:09;;;;;;;7.70;6.90;;;;;;;1.32;100.00;98853.47;5009589;28;20227;-60
2023/12/01 10:44:35;;;;;;;7.73;6.93;;;;;;;1.38;100.00;98865.09;5027699;28;20195;-60
2023/12/01 10:47:03;;;;;;;8.77;7.70;;;;;;;1.28;100.00;98857.81;5030739;28;20199;-61
2023/12/01 10:49:28;;;;;;;9.17;7.63;;;;;;;1.35;100.00;98847.44;5014189;28;20286;-60
2023/12/01 10:51:55;;;;;;;9.27;8.27;;;;;;;1.47;100.00;98854.59;5008098;28;20292;-62
2023/12/01 10:54:23;;;;;;;7.53;6.60;;;;;;;1.32;100.00;98845.84;5030614;28;20233;-61
2023/12/01 10:56:52;;;;;;;15.17;10.20;;;;;;;1.31;100.00;98856.06;5030499;28;20263;-61
2023/12/01 10:59:19;;;;;;;7.73;6.93;;;;;;;1.49;100.00;98882.41;5030495;28;20193;-58
2023/12/01 11:01:49;;;;;;;8.23;7.00;;;;;;;1.22;100.00;98867.34;5022494;28;20224;-59
2023/12/01 11:04:22;;;;;;;7.73;6.93;;;;;;;1.13;100.00;98873.56;5025457;28;20185;-58
2023/12/01 11:07:23;;;;;;;7.60;6.70;;;;;;;1.10;100.00;98856.78;5026016;28;20536;-60
2023/12/01 11:10:02;;;;;;;7.00;6.13;;;;;;;1.10;100.00;98859.31;5017041;28;20200;-61
2023/12/01 11:12:50;;;;;;;7.30;6.40;;;;;;;0.94;100.00;98851.44;5024585;28;20713;-61
2023/12/01 11:15:21;;;;;;;7.10;6.40;;;;;;;0.95;100.00;98867.44;5030382;28;20248;-61
2023/12/01 11:17:46;;;;;;;8.43;7.20;;;;;;;1.05;100.00;98856.09;5022089;28;20192;-61
2023/12/01 11:20:29;;;;;;;8.00;7.20;;;;;;;1.10;100.00;98854.25;5020290;28;20199;-61
2023/12/01 11:23:25;;;;;;;6.67;5.97;;;;;;;1.05;100.00;98856.09;5036418;28;20177;-61
2023/12/01 11:25:55;;;;;;;7.90;7.10;;;;;;;1.08;100.00;98855.16;5017027;28;20204;-61
2023/12/01 11:33:51;;;;;;;9.23;7.30;;;;;;;1.12;100.00;98833.91;5025172;28;20901;-61